Time;durP1;ratioP1;P1;durP2;ratioP2;P2;SDS_P1;SDS_P2;PMS_P1;PMS_P2;Temp;Humidity;BMP_temperature;BMP_pressure;BME280_temperature;BME280_humidity;BME280_pressure;Samples;Min_cycle;Max_cycle;Signal;HPM_P1;HPM_P2
2022/04/24 00:02:01;;;;;;;9.77;8.17;;;16.10;57.30;;;-142.21;89.01;112049.66;5070582;28;20454;-73
2022/04/24 00:04:29;;;;;;;10.10;8.33;;;16.10;57.10;;;-142.21;90.18;112049.66;5071363;28;20479;-73
2022/04/24 00:06:56;;;;;;;8.87;8.00;;;16.10;57.40;;;-142.21;90.51;112049.66;5071053;28;20444;-73
2022/04/24 00:09:24;;;;;;;11.13;7.80;;;16.10;57.40;;;-142.21;90.66;112049.66;5071231;28;20939;-73
2022/04/24 00:11:52;;;;;;;10.90;8.70;;;16.10;57.50;;;-142.21;90.85;112049.66;5070691;28;20447;-73
2022/04/24 00:14:19;;;;;;;10.77;8.47;;;16.10;57.20;;;-142.21;91.16;112049.66;5071350;28;20530;-73
2022/04/24 00:16:47;;;;;;;9.33;8.10;;;16.10;57.50;;;-142.21;90.59;112049.66;5071510;28;20446;-73
2022/04/24 00:19:15;;;;;;;8.00;7.20;;;16.10;57.30;;;-142.21;90.38;112049.66;5063674;28;20451;-73
2022/04/24 00:21:43;;;;;;;10.00;7.73;;;16.00;57.20;;;-142.21;90.23;112049.66;5071317;28;20447;-73
2022/04/24 00:24:10;;;;;;;9.53;7.80;;;16.10;57.40;;;-142.21;91.88;112049.66;5071311;28;20478;-73
2022/04/24 00:26:37;;;;;;;9.10;7.93;;;16.10;57.50;;;-142.21;91.22;112049.66;5075701;28;20508;-73
2022/04/24 00:29:06;;;;;;;8.77;7.77;;;16.10;57.30;;;-142.21;91.79;112049.66;5074817;28;20901;-73
2022/04/24 00:31:33;;;;;;;9.00;8.07;;;16.10;57.20;;;-142.21;90.86;112049.66;5075496;28;20447;-73
2022/04/24 00:34:00;;;;;;;7.97;7.07;;;16.10;57.60;;;-142.21;90.82;112049.66;5074872;28;20439;-73
2022/04/24 00:36:27;;;;;;;9.53;7.40;;;16.00;57.40;;;-142.21;90.74;112049.66;5074847;28;20537;-73
2022/04/24 00:38:54;;;;;;;10.87;7.70;;;16.00;57.50;;;-142.21;90.58;112049.66;5075177;28;20938;-73
2022/04/24 00:41:21;;;;;;;8.77;7.70;;;16.00;57.20;;;-142.21;91.81;112049.66;5075101;28;20462;-73
2022/04/24 00:43:53;;;;;;;8.87;7.37;;;16.10;57.50;;;-142.21;90.91;112049.66;5075269;28;20529;-73
2022/04/24 00:46:40;;;;;;;9.83;8.00;;;16.00;57.40;;;-142.21;91.31;112049.66;5074263;28;20441;-73
2022/04/24 00:49:09;;;;;;;8.47;7.67;;;16.00;57.30;;;-142.21;90.90;112049.66;5039540;28;20447;-73
2022/04/24 00:51:37;;;;;;;9.80;7.67;;;16.00;57.60;;;-142.21;90.60;112049.66;5074414;28;20522;-73
2022/04/24 00:54:08;;;;;;;9.23;8.13;;;16.00;57.30;;;-142.21;90.61;112049.66;5075252;28;20451;-73
2022/04/24 00:56:35;;;;;;;8.27;7.47;;;16.10;57.40;;;-142.21;91.12;112049.66;5039425;28;20447;-73
2022/04/24 00:59:06;;;;;;;7.23;6.53;;;16.10;57.00;;;-142.21;91.11;112049.66;5074412;28;20444;-73
2022/04/24 01:01:37;;;;;;;9.50;7.57;;;16.10;57.30;;;-142.21;91.82;112049.66;5074053;28;20965;-73
2022/04/24 01:04:07;;;;;;;7.67;6.73;;;16.10;57.40;;;-142.21;93.54;112049.66;5074664;28;20478;-73
2022/04/24 01:06:39;;;;;;;9.83;7.60;;;16.10;57.40;;;-142.21;91.05;112049.66;5074363;28;20447;-73
2022/04/24 01:09:15;;;;;;;9.67;7.33;;;16.10;57.60;;;-142.21;92.88;112049.66;5075009;28;20597;-73
2022/04/24 01:11:44;;;;;;;9.20;7.30;;;16.00;57.70;;;-142.21;91.45;112049.66;5074295;28;20532;-73
2022/04/24 01:14:12;;;;;;;9.90;7.97;;;15.80;58.00;;;-142.21;92.18;112049.66;5073969;28;20548;-73
2022/04/24 01:16:41;;;;;;;8.93;8.03;;;15.80;58.30;;;-142.21;93.10;112049.66;5073989;28;20542;-73
2022/04/24 01:19:08;;;;;;;10.37;7.80;;;15.70;58.10;;;-142.21;93.83;112049.66;5074029;28;20455;-73
2022/04/24 01:21:39;;;;;;;10.43;8.70;;;15.70;58.70;;;-142.21;94.88;112049.66;5074780;28;20811;-73
2022/04/24 01:24:07;;;;;;;9.83;7.83;;;15.70;59.00;;;-142.21;94.15;112049.66;5072786;28;20910;-73
2022/04/24 01:26:34;;;;;;;9.50;8.17;;;15.60;59.00;;;-142.21;94.37;112049.66;5073290;28;20447;-73
2022/04/24 01:29:02;;;;;;;9.93;8.23;;;15.50;58.90;;;-142.21;93.84;112049.66;5073011;28;21034;-73
2022/04/24 01:31:29;;;;;;;9.20;8.20;;;15.60;58.90;;;-142.21;95.27;112049.66;5074122;28;20439;-73
2022/04/24 01:33:57;;;;;;;9.07;8.10;;;15.60;58.60;;;-142.21;93.65;112049.66;5073171;28;20947;-73
2022/04/24 01:36:24;;;;;;;8.90;8.00;;;15.80;58.20;;;-142.21;94.47;112049.66;5073826;28;20534;-73
2022/04/24 01:38:52;;;;;;;9.00;8.10;;;15.80;58.20;;;-142.21;95.15;112049.66;5073499;28;20459;-73
2022/04/24 01:41:19;;;;;;;9.47;8.07;;;15.80;58.20;;;-142.21;93.69;112049.66;5073999;28;20552;-73
2022/04/24 01:43:47;;;;;;;8.70;7.80;;;15.90;58.10;;;-142.21;94.24;112049.66;5072973;28;20439;-73
2022/04/24 01:46:14;;;;;;;9.23;8.27;;;15.90;57.80;;;-142.21;94.06;112049.66;5073592;28;20473;-73
2022/04/24 01:48:41;;;;;;;9.33;8.17;;;15.90;58.00;;;-142.21;94.13;112049.66;5073714;28;20449;-73
2022/04/24 01:51:11;;;;;;;9.07;8.17;;;15.80;58.20;;;-142.21;94.47;112049.66;5073369;28;20440;-73
2022/04/24 01:53:38;;;;;;;10.77;7.87;;;15.80;58.20;;;-142.21;93.82;112049.66;5073973;28;20453;-73
2022/04/24 01:56:08;;;;;;;9.70;8.10;;;15.90;58.20;;;-142.21;94.05;112049.66;5073279;28;20443;-73
2022/04/24 01:58:37;;;;;;;8.43;7.50;;;15.90;58.10;;;-142.21;93.89;112049.66;5073243;28;20451;-73
2022/04/24 02:01:05;;;;;;;7.93;7.13;;;16.10;57.90;;;-142.21;93.64;112049.66;5073553;28;20444;-73
2022/04/24 02:03:33;;;;;;;8.40;7.47;;;16.20;57.50;;;-142.21;93.00;112049.66;5073600;28;20444;-73
2022/04/24 02:06:01;;;;;;;8.90;7.83;;;16.20;57.10;;;-142.21;93.26;112049.66;5073597;28;20483;-73
2022/04/24 02:08:28;;;;;;;8.23;7.33;;;16.30;57.60;;;-142.21;94.61;112049.66;5072830;28;20446;-73
2022/04/24 02:10:55;;;;;;;8.10;7.00;;;16.30;57.00;;;-142.21;94.44;112049.66;5073167;28;20517;-73
2022/04/24 02:13:24;;;;;;;8.20;7.40;;;16.40;57.20;;;-142.21;94.00;112049.66;5072419;28;20443;-73
2022/04/24 02:15:51;;;;;;;8.60;7.60;;;16.40;56.70;;;-142.21;94.60;112049.66;5073795;28;20486;-73
2022/04/24 02:18:18;;;;;;;9.33;7.70;;;16.40;57.00;;;-142.21;97.73;112049.66;5072511;28;20445;-73
2022/04/24 02:20:45;;;;;;;8.67;7.77;;;16.50;57.90;;;-142.21;95.56;112049.66;5072455;28;20439;-73
2022/04/24 02:23:12;;;;;;;8.03;7.23;;;16.40;57.20;;;-142.21;98.16;112049.66;5073285;28;20443;-73
2022/04/24 02:25:39;;;;;;;9.67;8.23;;;16.50;57.90;;;-142.21;98.50;112049.66;5071973;28;20582;-73
2022/04/24 02:28:06;;;;;;;9.47;8.37;;;16.40;58.50;;;-142.21;99.81;112049.66;5073430;28;20454;-73
2022/04/24 02:30:35;;;;;;;9.50;8.57;;;16.30;59.60;;;-142.21;100.00;112049.66;5067579;28;20531;-73
2022/04/24 02:33:03;;;;;;;9.40;8.13;;;16.00;61.00;;;-142.21;100.00;112049.66;5064778;28;20447;-73
2022/04/24 02:35:31;;;;;;;9.77;7.83;;;15.80;60.60;;;-142.21;100.00;112049.66;5072816;28;20444;-73
2022/04/24 02:37:58;;;;;;;9.13;8.23;;;15.70;61.50;;;-142.21;100.00;112049.66;5072853;28;20958;-73
2022/04/24 02:40:27;;;;;;;9.63;8.53;;;15.60;62.50;;;-142.21;100.00;112049.66;5072112;28;20481;-73
2022/04/24 02:42:55;;;;;;;9.03;8.13;;;15.50;63.20;;;-142.21;100.00;112049.66;5072607;28;20981;-73
2022/04/24 02:45:22;;;;;;;9.67;8.67;;;15.40;63.00;;;-142.21;100.00;112049.66;5073217;28;20483;-73
2022/04/24 02:47:51;;;;;;;9.43;8.37;;;15.40;64.30;;;-142.21;100.00;112049.66;5071304;28;20817;-72
2022/04/24 02:50:18;;;;;;;11.07;9.13;;;15.50;64.40;;;-142.21;100.00;112049.66;5072919;28;20793;-72
2022/04/24 02:52:50;;;;;;;9.30;8.30;;;15.50;63.90;;;-142.21;100.00;112049.66;5071061;28;20452;-73
2022/04/24 02:55:18;;;;;;;9.70;8.33;;;15.60;64.50;;;-142.21;100.00;112049.66;5072046;28;20463;-72
2022/04/24 02:57:47;;;;;;;11.33;8.33;;;15.60;64.40;;;-142.21;100.00;112049.66;5071473;28;20448;-72
2022/04/24 03:00:19;;;;;;;9.47;8.47;;;15.60;63.90;;;-142.21;100.00;112049.66;5073222;28;20462;-73
2022/04/24 03:02:51;;;;;;;9.23;8.10;;;15.60;63.60;;;-142.21;100.00;112049.66;5071683;28;20444;-73
2022/04/24 03:05:22;;;;;;;9.30;8.30;;;15.60;63.00;;;-142.21;100.00;112049.66;5072786;28;20514;-73
2022/04/24 03:07:49;;;;;;;9.20;8.13;;;15.60;63.30;;;-142.21;100.00;112049.66;5059345;28;20451;-73
2022/04/24 03:10:17;;;;;;;10.07;8.77;;;15.60;63.20;;;-142.21;100.00;112049.66;5071932;28;20554;-73
2022/04/24 03:12:46;;;;;;;9.43;8.43;;;15.60;63.90;;;-142.21;100.00;112049.66;5072317;28;20450;-73
2022/04/24 03:15:15;;;;;;;8.60;7.70;;;15.50;63.60;;;-142.21;100.00;112049.66;5071833;28;20482;-73
2022/04/24 03:17:43;;;;;;;9.57;8.40;;;15.60;64.00;;;-142.21;100.00;112049.66;5072172;28;20509;-73
2022/04/24 03:20:13;;;;;;;10.70;8.17;;;15.60;64.40;;;-142.21;100.00;112049.66;5071396;28;20827;-73
2022/04/24 03:22:41;;;;;;;10.20;8.70;;;15.60;64.10;;;-142.21;100.00;112049.66;5072093;28;20535;-73
2022/04/24 03:25:10;;;;;;;9.13;8.07;;;15.60;64.70;;;-142.21;100.00;112049.66;5069976;28;20502;-73
2022/04/24 03:27:38;;;;;;;12.10;8.67;;;15.60;64.50;;;-142.21;100.00;112049.66;5071799;28;20443;-73
2022/04/24 03:30:08;;;;;;;10.27;8.70;;;15.50;64.40;;;-142.21;100.00;112049.66;5071511;28;20482;-73
2022/04/24 03:32:36;;;;;;;9.93;8.80;;;15.50;65.00;;;-142.21;100.00;112049.66;5071790;28;20846;-72
2022/04/24 03:35:06;;;;;;;10.33;8.57;;;15.50;65.00;;;-142.21;100.00;112049.66;5061281;28;20443;-73
2022/04/24 03:37:34;;;;;;;11.43;9.50;;;15.50;65.70;;;-142.21;100.00;112049.66;5065554;28;20959;-73
2022/04/24 03:40:03;;;;;;;11.83;9.50;;;15.50;65.60;;;-142.21;100.00;112049.66;5072017;28;20472;-73
2022/04/24 03:42:31;;;;;;;10.60;9.40;;;15.50;66.20;;;-142.21;100.00;112049.66;5070979;28;20443;-73
2022/04/24 03:45:00;;;;;;;11.07;9.30;;;15.50;65.80;;;-142.21;100.00;112049.66;5071323;28;20482;-73
2022/04/24 03:47:27;;;;;;;10.07;8.30;;;15.50;65.80;;;-142.21;100.00;112049.66;5055251;28;20447;-73
2022/04/24 03:49:54;;;;;;;11.67;8.80;;;15.50;66.30;;;-142.21;100.00;112049.66;5071924;28;20853;-73
2022/04/24 03:52:21;;;;;;;10.57;8.80;;;15.50;65.40;;;-142.21;100.00;112049.66;5070802;28;20936;-73
2022/04/24 03:54:51;;;;;;;9.97;8.97;;;15.60;65.00;;;-142.21;100.00;112049.66;5071418;28;20538;-73
2022/04/24 03:57:19;;;;;;;11.43;8.97;;;15.60;65.10;;;-142.21;100.00;112049.66;5072126;28;20479;-73
2022/04/24 03:59:46;;;;;;;10.37;9.27;;;15.60;66.10;;;-142.21;100.00;112049.66;5071686;28;20538;-74
2022/04/24 04:02:13;;;;;;;11.20;9.23;;;15.60;65.70;;;-142.21;100.00;112049.66;5071368;28;20955;-73
2022/04/24 04:04:40;;;;;;;9.97;8.80;;;15.60;66.60;;;-142.21;100.00;112049.66;5070785;28;20962;-74
2022/04/24 04:07:07;;;;;;;9.33;8.30;;;15.60;66.00;;;-142.21;100.00;112049.66;5070825;28;20482;-73
2022/04/24 04:09:35;;;;;;;10.00;7.97;;;15.80;66.70;;;-142.21;100.00;112049.66;5071115;28;20448;-73
2022/04/24 04:12:02;;;;;;;9.27;8.37;;;15.90;64.80;;;-142.21;100.00;112049.66;5071627;28;20444;-73
2022/04/24 04:14:30;;;;;;;10.10;9.10;;;15.80;66.40;;;-142.21;100.00;112049.66;5070899;28;20446;-73
2022/04/24 04:16:57;;;;;;;9.53;8.53;;;15.80;65.60;;;-142.21;100.00;112049.66;5070717;28;20452;-73
2022/04/24 04:19:25;;;;;;;10.50;9.50;;;15.80;65.20;;;-142.21;100.00;112049.66;5071355;28;20469;-73
2022/04/24 04:21:52;;;;;;;10.43;9.23;;;15.80;65.00;;;-142.21;100.00;112049.66;5070754;28;20848;-73
2022/04/24 04:24:19;;;;;;;11.47;9.80;;;15.80;66.20;;;-142.21;100.00;112049.66;5071160;28;21043;-73
2022/04/24 04:26:46;;;;;;;13.03;10.20;;;15.60;66.60;;;-142.21;100.00;112049.66;5070903;28;20479;-73
2022/04/24 04:29:13;;;;;;;12.03;9.00;;;15.60;68.50;;;-142.21;100.00;112049.66;5071204;28;20475;-73
2022/04/24 04:31:42;;;;;;;10.60;9.40;;;15.60;67.40;;;-142.21;100.00;112049.66;5071082;28;20550;-73
2022/04/24 04:34:09;;;;;;;9.60;8.60;;;15.70;66.50;;;-142.21;100.00;112049.66;5070941;28;20447;-73
2022/04/24 04:36:36;;;;;;;14.10;10.07;;;15.80;64.20;;;-142.21;100.00;112049.66;5070792;28;20534;-73
2022/04/24 04:39:03;;;;;;;15.17;10.10;;;15.90;63.70;;;-142.21;100.00;112049.66;5070177;28;20489;-73
2022/04/24 04:41:30;;;;;;;21.83;10.90;;;15.90;63.80;;;-142.21;100.00;112049.66;5069782;28;20470;-73
2022/04/24 04:43:58;;;;;;;14.83;10.60;;;15.90;65.10;;;-142.21;100.00;112049.66;5064946;28;20444;-73
2022/04/24 04:46:25;;;;;;;18.13;11.20;;;15.90;65.70;;;-142.21;100.00;112049.66;5070543;28;20486;-73
2022/04/24 04:48:53;;;;;;;15.37;11.03;;;15.90;66.90;;;-142.21;100.00;112049.66;5070837;28;20971;-73
2022/04/24 04:51:20;;;;;;;13.07;11.10;;;15.90;66.30;;;-142.21;100.00;112049.66;5070247;28;20854;-73
2022/04/24 04:53:47;;;;;;;15.07;11.67;;;16.00;64.80;;;-142.21;100.00;112049.66;5071025;28;20455;-74
2022/04/24 04:56:15;;;;;;;14.00;12.00;;;15.90;64.40;;;-142.21;100.00;112049.66;5070884;28;20450;-74
2022/04/24 04:58:42;;;;;;;14.73;12.70;;;16.00;65.00;;;-142.21;100.00;112049.66;5071458;28;20482;-73
2022/04/24 05:01:09;;;;;;;17.73;13.77;;;16.10;66.00;;;-142.21;100.00;112049.66;5070886;28;20854;-73
2022/04/24 05:03:36;;;;;;;14.20;12.17;;;16.10;66.30;;;-142.21;100.00;112049.66;5071400;28;20447;-73
2022/04/24 05:06:05;;;;;;;15.70;12.57;;;16.10;66.00;;;-142.21;100.00;112049.66;5070746;28;20482;-73
2022/04/24 05:08:32;;;;;;;15.47;13.13;;;16.10;65.80;;;-142.21;100.00;112049.66;5071008;28;20480;-73
2022/04/24 05:11:01;;;;;;;16.37;13.37;;;16.10;66.00;;;-142.21;100.00;112049.66;5072852;28;20478;-73
2022/04/24 05:13:28;;;;;;;16.23;13.40;;;16.10;66.80;;;-142.21;100.00;112049.66;5073338;28;20449;-73
2022/04/24 05:15:56;;;;;;;13.70;11.50;;;16.00;67.00;;;-142.21;100.00;112049.66;5074585;28;20526;-73
2022/04/24 05:18:23;;;;;;;14.40;11.73;;;16.10;66.90;;;-142.21;100.00;112049.66;5069772;28;20818;-73
2022/04/24 05:20:50;;;;;;;14.37;12.20;;;16.10;66.20;;;-142.21;100.00;112049.66;5073939;28;20443;-73
2022/04/24 05:23:19;;;;;;;12.27;10.83;;;16.10;65.80;;;-142.21;100.00;112049.66;5074484;28;20454;-73
2022/04/24 05:25:46;;;;;;;13.17;10.83;;;16.00;66.80;;;-142.21;100.00;112049.66;5074563;28;20485;-73
2022/04/24 05:28:13;;;;;;;12.53;10.63;;;16.00;66.20;;;-142.21;100.00;112049.66;5073934;28;20473;-74
2022/04/24 05:30:40;;;;;;;12.47;10.97;;;16.00;66.40;;;-142.21;100.00;112049.66;5073674;28;20439;-73
2022/04/24 05:33:07;;;;;;;13.20;11.40;;;15.90;66.20;;;-142.21;100.00;112049.66;5073775;28;20454;-73
2022/04/24 05:35:34;;;;;;;13.93;10.87;;;15.90;66.10;;;-142.21;100.00;112049.66;5073902;28;20526;-73
2022/04/24 05:38:01;;;;;;;11.33;10.13;;;15.80;66.60;;;-142.21;100.00;112049.66;5073974;28;20966;-73
2022/04/24 05:40:29;;;;;;;12.73;10.63;;;15.80;67.00;;;-142.21;100.00;112049.66;5073931;28;20474;-73
2022/04/24 05:42:57;;;;;;;11.67;10.17;;;15.80;67.30;;;-142.21;100.00;112049.66;5074061;28;20447;-73
2022/04/24 05:45:25;;;;;;;11.90;9.90;;;15.80;67.50;;;-142.21;100.00;112049.66;5074444;28;20505;-73
2022/04/24 05:47:54;;;;;;;11.00;9.77;;;15.80;67.40;;;-142.21;100.00;112049.66;5071702;28;20799;-73
2022/04/24 05:50:23;;;;;;;12.80;10.60;;;15.80;68.00;;;-142.21;100.00;112049.66;5065954;28;20447;-73
2022/04/24 05:52:50;;;;;;;13.27;10.83;;;15.80;68.20;;;-142.21;100.00;112049.66;5073210;28;20475;-72
2022/04/24 05:55:17;;;;;;;13.10;11.20;;;15.70;68.20;;;-142.21;100.00;112049.66;5074293;28;20854;-72
2022/04/24 05:57:49;;;;;;;11.03;9.83;;;15.80;68.70;;;-142.21;100.00;112049.66;5073107;28;20514;-72
2022/04/24 06:00:17;;;;;;;13.87;10.40;;;15.70;69.50;;;-142.21;100.00;112049.66;5074120;28;20443;-73
2022/04/24 06:02:44;;;;;;;12.70;10.27;;;15.60;69.80;;;-142.21;100.00;112049.66;5072404;28;20534;-72
2022/04/24 06:05:12;;;;;;;11.33;10.10;;;15.60;69.90;;;-142.21;100.00;112049.66;5073397;28;20530;-72
2022/04/24 06:07:40;;;;;;;11.87;9.97;;;15.50;70.50;;;-142.21;100.00;112049.66;5073618;28;20482;-72
2022/04/24 06:10:10;;;;;;;11.90;9.73;;;15.50;70.50;;;-142.21;100.00;112049.66;5072911;28;20508;-72
2022/04/24 06:12:47;;;;;;;12.00;10.13;;;15.50;70.30;;;-142.21;100.00;112049.66;5073524;28;20448;-72
2022/04/24 06:15:16;;;;;;;10.73;9.63;;;15.40;70.70;;;-142.21;100.00;112049.66;5073425;28;20437;-71
2022/04/24 06:17:46;;;;;;;11.70;10.10;;;15.40;70.50;;;-142.21;100.00;112049.66;5072520;28;20447;-72
2022/04/24 06:20:14;;;;;;;11.93;10.00;;;15.30;71.00;;;-142.21;100.00;112049.66;5072899;28;20447;-72
2022/04/24 06:22:46;;;;;;;11.57;10.07;;;15.30;71.20;;;-142.21;100.00;112049.66;5072027;28;20450;-72
2022/04/24 06:25:18;;;;;;;10.60;9.43;;;15.20;71.30;;;-142.21;100.00;112049.66;5072876;28;20865;-72
2022/04/24 06:27:48;;;;;;;12.53;9.93;;;15.20;71.60;;;-142.21;100.00;112049.66;5072244;28;20455;-72
2022/04/24 06:30:18;;;;;;;10.83;9.73;;;15.20;71.10;;;-142.21;100.00;112049.66;5072440;28;20506;-73
2022/04/24 06:32:46;;;;;;;8.73;7.53;;;15.10;71.50;;;-142.21;100.00;112049.66;5069168;28;20503;-73
2022/04/24 06:35:17;;;;;;;9.23;7.13;;;15.10;72.20;;;-142.21;100.00;112049.66;5061854;28;20447;-73
2022/04/24 06:37:47;;;;;;;7.20;5.93;;;15.00;72.10;;;-142.21;100.00;112049.66;5072901;28;20444;-72
2022/04/24 06:40:16;;;;;;;6.20;5.23;;;15.00;71.90;;;-142.21;100.00;112049.66;5072290;28;20502;-72
2022/04/24 06:42:53;;;;;;;4.57;4.17;;;14.90;72.50;;;-142.21;100.00;112049.66;5072578;28;20833;-72
2022/04/24 06:45:25;;;;;;;4.90;3.80;;;15.00;72.90;;;-142.21;100.00;112049.66;5072557;28;20882;-73
2022/04/24 06:47:54;;;;;;;3.33;2.43;;;15.10;72.30;;;-142.21;100.00;112049.66;5072163;28;20439;-73
2022/04/24 06:50:23;;;;;;;2.00;1.80;;;15.00;72.10;;;-142.21;100.00;112049.66;5072077;28;20448;-72
2022/04/24 06:53:01;;;;;;;2.00;1.80;;;15.00;72.70;;;-142.21;100.00;112049.66;5071994;28;20443;-72
2022/04/24 06:55:29;;;;;;;1.20;1.10;;;14.90;72.30;;;-142.21;100.00;112049.66;5068844;28;20510;-73
2022/04/24 06:57:58;;;;;;;3.83;1.57;;;14.90;72.30;;;-142.21;100.00;112049.66;5071544;28;20538;-73
2022/04/24 07:00:28;;;;;;;1.30;1.10;;;14.90;72.50;;;-142.21;100.00;112049.66;5062021;28;20454;-73
2022/04/24 07:02:56;;;;;;;1.67;1.00;;;14.90;72.50;;;-142.21;100.00;112049.66;5071701;28;20979;-73
2022/04/24 07:05:25;;;;;;;1.20;1.10;;;14.90;72.30;;;-142.21;100.00;112049.66;5072489;28;20443;-73
2022/04/24 07:07:53;;;;;;;1.30;1.20;;;14.90;72.30;;;-142.21;100.00;112049.66;5072723;28;20519;-73
2022/04/24 07:10:20;;;;;;;1.70;1.43;;;15.00;72.20;;;-142.21;100.00;112049.66;5072608;28;20451;-73
2022/04/24 07:12:50;;;;;;;1.97;0.90;;;15.10;71.90;;;-142.21;100.00;112049.66;5071603;28;20529;-73
2022/04/24 07:15:21;;;;;;;1.53;1.10;;;15.10;72.30;;;-142.21;100.00;112049.66;5054010;28;20451;-72
2022/04/24 07:17:53;;;;;;;1.30;0.80;;;15.10;71.60;;;-142.21;100.00;112049.66;5071708;28;20467;-72
2022/04/24 07:20:21;;;;;;;1.47;0.70;;;15.10;71.70;;;-142.21;100.00;112049.66;5072035;28;20439;-72
2022/04/24 07:22:51;;;;;;;1.87;0.90;;;15.10;71.80;;;-142.21;100.00;112049.66;5071184;28;20487;-73
2022/04/24 07:25:20;;;;;;;0.90;0.90;;;15.20;72.00;;;-142.21;100.00;112049.66;5072285;28;20458;-73
2022/04/24 07:27:48;;;;;;;1.43;0.70;;;15.20;72.00;;;-142.21;100.00;112049.66;5071546;28;20489;-72
2022/04/24 07:30:18;;;;;;;1.17;0.97;;;15.20;71.60;;;-142.21;100.00;112049.66;5071365;28;20463;-73
2022/04/24 07:32:48;;;;;;;2.07;0.90;;;15.20;71.90;;;-142.21;100.00;112049.66;5071159;28;20443;-72
2022/04/24 07:35:17;;;;;;;0.90;0.90;;;15.20;71.50;;;-142.21;100.00;112049.66;5072606;28;20868;-73
2022/04/24 07:37:46;;;;;;;0.80;0.80;;;15.10;71.90;;;-142.21;100.00;112049.66;5072083;28;20493;-72
2022/04/24 07:40:15;;;;;;;0.90;0.90;;;15.10;71.90;;;-142.21;100.00;112049.66;5071009;28;20558;-72
2022/04/24 07:42:50;;;;;;;1.23;0.80;;;15.10;72.40;;;-142.21;100.00;112049.66;5071722;28;20494;-73
2022/04/24 07:45:21;;;;;;;1.70;0.70;;;15.20;72.50;;;-142.21;100.00;112049.66;5070440;28;20438;-73
2022/04/24 07:47:49;;;;;;;0.73;0.73;;;15.30;72.20;;;-142.21;100.00;112049.66;5071777;28;20486;-72
2022/04/24 07:50:18;;;;;;;0.60;0.60;;;15.20;72.00;;;-142.21;100.00;112049.66;5070719;28;20471;-73
2022/04/24 07:52:47;;;;;;;0.97;0.97;;;15.20;72.40;;;-142.21;100.00;112049.66;5059720;28;20448;-73
2022/04/24 07:55:18;;;;;;;1.10;1.00;;;15.20;72.40;;;-142.21;100.00;112049.66;5070422;28;20794;-73
2022/04/24 07:57:46;;;;;;;1.33;0.77;;;15.30;72.50;;;-142.21;100.00;112049.66;5070775;28;20526;-73
2022/04/24 08:00:16;;;;;;;1.07;0.97;;;15.40;72.20;;;-142.21;100.00;112049.66;5069720;28;20822;-73
2022/04/24 08:02:50;;;;;;;1.30;1.00;;;15.40;72.40;;;-142.21;100.00;112049.66;5070094;28;21029;-73
2022/04/24 08:05:25;;;;;;;1.13;1.00;;;15.50;72.40;;;-142.21;100.00;112049.66;5052425;28;20439;-74
2022/04/24 08:07:54;;;;;;;1.13;1.03;;;15.50;71.90;;;-142.21;100.00;112049.66;5071842;28;20521;-73
2022/04/24 08:10:25;;;;;;;0.90;0.90;;;15.60;71.50;;;-142.21;100.00;112049.66;5071842;28;20534;-73
2022/04/24 08:12:56;;;;;;;1.43;1.17;;;15.70;71.60;;;-142.21;100.00;112049.66;5071261;28;20479;-73
2022/04/24 08:15:27;;;;;;;1.00;1.00;;;15.70;71.60;;;-142.21;100.00;112049.66;5071379;28;20438;-73
2022/04/24 08:17:55;;;;;;;1.93;1.30;;;15.80;71.80;;;-142.21;100.00;112049.66;5072446;28;20765;-73
2022/04/24 08:20:23;;;;;;;3.60;1.50;;;15.90;70.90;;;-142.21;100.00;112049.66;5071602;28;20447;-73
2022/04/24 08:22:53;;;;;;;1.50;1.40;;;15.90;70.80;;;-142.21;100.00;112049.66;5036643;28;20531;-73
2022/04/24 08:25:23;;;;;;;2.03;1.30;;;15.90;71.40;;;-142.21;100.00;112049.66;5071251;28;20569;-73
2022/04/24 08:27:51;;;;;;;2.63;1.60;;;15.90;71.80;;;-142.21;100.00;112049.66;5065802;28;20491;-73
2022/04/24 08:30:21;;;;;;;1.87;1.47;;;16.00;71.40;;;-142.21;100.00;112049.66;5070773;28;20475;-73
2022/04/24 08:32:50;;;;;;;1.50;1.40;;;16.00;71.20;;;-142.21;100.00;112049.66;5071295;28;20447;-73
2022/04/24 08:35:20;;;;;;;1.70;1.30;;;16.00;71.00;;;-142.21;100.00;112049.66;5054969;28;20470;-73
2022/04/24 08:37:49;;;;;;;1.60;1.03;;;16.00;71.00;;;-142.21;100.00;112049.66;5061220;28;21011;-73
2022/04/24 08:40:18;;;;;;;1.40;1.30;;;16.00;70.70;;;-142.21;100.00;112049.66;5063571;28;20568;-73
2022/04/24 08:42:46;;;;;;;1.00;1.00;;;15.90;70.60;;;-142.21;100.00;112049.66;5061025;28;20455;-73
2022/04/24 08:45:15;;;;;;;1.13;0.90;;;16.00;70.90;;;-142.21;100.00;112049.66;5054974;28;20510;-73
2022/04/24 08:47:45;;;;;;;1.03;1.00;;;15.90;70.80;;;-142.21;100.00;112049.66;5059305;28;20905;-74
2022/04/24 08:50:14;;;;;;;1.00;1.00;;;15.80;70.20;;;-142.21;100.00;112049.66;5073196;28;20451;-73
2022/04/24 08:52:45;;;;;;;1.10;1.10;;;15.70;71.40;;;-142.21;100.00;112049.66;5071869;28;20504;-73
2022/04/24 08:55:12;;;;;;;0.90;0.90;;;15.70;71.80;;;-142.21;100.00;112049.66;5069031;28;20440;-72
2022/04/24 08:57:40;;;;;;;1.40;1.30;;;15.70;71.00;;;-142.21;100.00;112049.66;5066857;28;20848;-72
2022/04/24 09:00:10;;;;;;;1.03;0.93;;;15.70;71.60;;;-142.21;100.00;112049.66;5075352;28;20778;-72
2022/04/24 09:02:37;;;;;;;1.40;1.30;;;15.70;71.60;;;-142.21;100.00;112049.66;5058928;28;20451;-72
2022/04/24 09:05:06;;;;;;;2.80;1.07;;;15.70;72.20;;;-142.21;100.00;112049.66;5070890;28;20461;-72
2022/04/24 09:07:35;;;;;;;1.27;1.17;;;15.70;71.60;;;-142.21;100.00;112049.66;5070553;28;20566;-73
2022/04/24 09:10:09;;;;;;;1.30;1.20;;;15.70;71.60;;;-142.21;100.00;112049.66;5063061;28;20840;-72
2022/04/24 09:12:37;;;;;;;2.10;1.37;;;15.80;71.90;;;-142.21;100.00;112049.66;5074522;28;20485;-71
2022/04/24 09:15:07;;;;;;;1.80;1.10;;;15.70;71.60;;;-142.21;100.00;112049.66;5074867;28;20927;-72
2022/04/24 09:17:36;;;;;;;1.33;1.23;;;15.70;71.70;;;-142.21;100.00;112049.66;5075370;28;20534;-72
2022/04/24 09:20:18;;;;;;;1.30;1.20;;;15.70;72.20;;;-142.21;100.00;112049.66;5075014;28;20516;-72
2022/04/24 09:22:47;;;;;;;1.10;1.10;;;15.70;72.80;;;-142.21;100.00;112049.66;5073171;28;20436;-72
2022/04/24 09:25:15;;;;;;;1.20;1.07;;;15.70;72.40;;;-142.21;100.00;112049.66;5072531;28;20483;-72
2022/04/24 09:27:43;;;;;;;2.87;1.37;;;15.70;72.20;;;-142.21;100.00;112049.66;5074943;28;20577;-72
2022/04/24 09:30:14;;;;;;;1.10;1.00;;;15.70;72.00;;;-142.21;100.00;112049.66;5074337;28;20549;-74
2022/04/24 09:32:50;;;;;;;0.90;0.90;;;15.70;72.70;;;-142.21;100.00;112049.66;5060049;28;20516;-73
2022/04/24 09:35:26;;;;;;;1.00;0.90;;;15.70;72.90;;;-142.21;100.00;112049.66;5070220;28;20447;-73
2022/04/24 09:38:07;;;;;;;0.80;0.80;;;15.60;72.70;;;-142.21;100.00;112049.66;5055396;28;20460;-73
2022/04/24 09:40:44;;;;;;;1.30;0.90;;;15.50;72.70;;;-142.21;100.00;112049.66;5050161;28;20815;-73
2022/04/24 09:43:13;;;;;;;1.20;0.70;;;15.50;73.10;;;-142.21;100.00;112049.66;5069720;28;21011;-72
2022/04/24 09:45:41;;;;;;;0.73;0.73;;;15.40;72.90;;;-142.21;100.00;112049.66;5074685;28;20450;-72
2022/04/24 09:48:13;;;;;;;1.33;0.87;;;15.40;72.40;;;-142.21;100.00;112049.66;5074239;28;20487;-73
2022/04/24 09:50:41;;;;;;;1.20;1.10;;;15.40;72.90;;;-142.21;100.00;112049.66;5075031;28;20447;-72
2022/04/24 09:53:13;;;;;;;2.50;1.10;;;15.40;72.80;;;-142.21;100.00;112049.66;5074406;28;20443;-72
2022/04/24 09:55:44;;;;;;;0.63;0.63;;;15.30;72.40;;;-142.21;100.00;112049.66;5069130;28;20790;-73
2022/04/24 09:58:13;;;;;;;0.80;0.80;;;15.30;72.50;;;-142.21;100.00;112049.66;5073276;28;20435;-73
2022/04/24 10:00:41;;;;;;;1.07;0.97;;;15.30;73.10;;;-142.21;100.00;112049.66;5074936;28;20903;-73